Time;durP1;ratioP1;P1;durP2;ratioP2;P2;SDS_P1;SDS_P2;PMS_P1;PMS_P2;Temp;Humidity;BMP_temperature;BMP_pressure;BME280_temperature;BME280_humidity;BME280_pressure;Samples;Min_cycle;Max_cycle;Signal;HPM_P1;HPM_P2
2024/01/16 00:00:08;;;;;;;56.78;51.20;;;;;;;17.65;39.30;100544.69;5032281;28;20505;-72
2024/01/16 00:02:34;;;;;;;54.55;48.78;;;;;;;17.80;39.33;100569.34;5027009;28;20061;-71
2024/01/16 00:04:59;;;;;;;40.58;36.75;;;;;;;17.76;39.49;100574.13;5025552;28;20071;-72
2024/01/16 00:07:25;;;;;;;76.00;68.00;;;;;;;17.79;39.40;100586.97;5013669;28;20098;-72
2024/01/16 00:09:52;;;;;;;72.80;65.05;;;;;;;17.62;39.55;100564.28;5027192;28;20033;-72
2024/01/16 00:12:18;;;;;;;54.25;48.60;;;;;;;17.77;39.27;100585.47;5026956;28;20472;-72
2024/01/16 00:14:43;;;;;;;17.35;15.90;;;;;;;17.70;39.43;100582.72;5027643;28;20037;-72
2024/01/16 00:17:09;;;;;;;3.13;2.60;;;;;;;17.70;39.43;100577.44;5021282;28;20037;-72
2024/01/16 00:19:35;;;;;;;1.83;1.38;;;;;;;17.69;39.13;100581.06;5026289;28;20655;-71
2024/01/16 00:22:02;;;;;;;1.50;0.93;;;;;;;17.75;39.35;100596.19;5023999;28;20121;-72
2024/01/16 00:24:28;;;;;;;1.73;0.63;;;;;;;17.72;39.37;100593.88;5027026;28;20083;-72
2024/01/16 00:26:54;;;;;;;1.15;0.70;;;;;;;17.71;39.40;100596.69;5025636;28;20147;-72
2024/01/16 00:29:20;;;;;;;2.85;0.75;;;;;;;17.69;39.49;100586.34;5029862;28;20044;-71
2024/01/16 00:31:45;;;;;;;1.45;0.68;;;;;;;17.75;39.20;100606.72;5027315;28;20041;-72
2024/01/16 00:34:11;;;;;;;1.48;0.70;;;;;;;17.73;39.27;100598.16;5025718;28;20424;-71
2024/01/16 00:36:37;;;;;;;0.70;0.52;;;;;;;17.69;39.45;100594.25;5023410;28;20050;-72
2024/01/16 00:39:03;;;;;;;0.73;0.50;;;;;;;17.73;39.54;100606.06;5023080;28;20038;-71
2024/01/16 00:41:28;;;;;;;1.83;1.42;;;;;;;17.65;39.48;100600.00;5024810;28;20050;-72
2024/01/16 00:43:54;;;;;;;3.50;2.45;;;;;;;17.65;39.66;100608.72;5026587;28;20052;-71
2024/01/16 00:46:20;;;;;;;3.33;2.55;;;;;;;17.63;39.55;100599.34;5026005;28;20049;-71
2024/01/16 00:48:46;;;;;;;2.63;2.00;;;;;;;17.58;39.59;100588.47;5030020;28;20446;-71
2024/01/16 00:51:12;;;;;;;2.35;1.58;;;;;;;17.68;39.55;100603.13;5025843;28;20112;-71
2024/01/16 00:53:41;;;;;;;6.50;5.88;;;;;;;17.70;39.39;100602.97;5028746;28;20033;-71
2024/01/16 00:56:07;;;;;;;4.45;3.25;;;;;;;17.70;39.42;100611.69;5026572;28;20601;-71
2024/01/16 00:58:32;;;;;;;6.10;5.53;;;;;;;17.66;39.56;100613.00;5030297;28;20222;-71
2024/01/16 01:00:58;;;;;;;7.95;6.75;;;;;;;17.69;39.50;100617.94;5007669;28;20037;-70
2024/01/16 01:03:23;;;;;;;5.25;4.72;;;;;;;17.66;39.56;100618.25;5026391;28;20044;-71
2024/01/16 01:05:49;;;;;;;4.72;4.30;;;;;;;17.64;39.60;100614.97;5028567;28;20025;-71
2024/01/16 01:08:14;;;;;;;2.33;2.17;;;;;;;17.66;39.45;100605.09;5024231;28;20057;-71
2024/01/16 01:10:40;;;;;;;2.92;2.53;;;;;;;17.72;39.28;100609.69;5027707;28;20037;-71
2024/01/16 01:13:05;;;;;;;3.20;2.63;;;;;;;17.73;39.28;100606.06;5025969;28;20052;-71
2024/01/16 01:15:31;;;;;;;5.53;4.47;;;;;;;17.93;39.08;100614.38;5020624;28;20044;-71
2024/01/16 01:17:56;;;;;;;11.52;10.43;;;;;;;17.88;39.28;100616.72;5021665;28;20045;-71
2024/01/16 01:20:22;;;;;;;30.80;28.58;;;;;;;17.87;39.16;100612.44;5011656;28;20026;-70
2024/01/16 01:22:48;;;;;;;24.90;23.15;;;;;;;17.84;39.26;100612.78;5027732;28;20112;-71
2024/01/16 01:25:13;;;;;;;43.40;40.15;;;;;;;17.85;39.30;100619.69;5014878;28;20041;-71
2024/01/16 01:27:40;;;;;;;41.13;37.58;;;;;;;17.84;39.54;100627.75;5023841;28;20084;-71
2024/01/16 01:30:11;;;;;;;69.50;62.80;;;;;;;17.78;39.53;100616.13;5026255;28;20058;-71
2024/01/16 01:32:38;;;;;;;69.53;62.78;;;;;;;17.80;39.40;100622.03;5026639;28;20072;-72
2024/01/16 01:35:04;;;;;;;77.97;69.75;;;;;;;17.73;39.62;100618.41;5023955;28;20136;-71
2024/01/16 01:37:30;;;;;;;59.17;53.78;;;;;;;17.75;39.46;100619.06;5025140;28;20033;-71
2024/01/16 01:39:55;;;;;;;57.08;52.05;;;;;;;17.71;39.37;100618.59;5029014;28;20049;-71
2024/01/16 01:42:21;;;;;;;35.58;32.08;;;;;;;17.57;39.65;100603.47;5023796;28;20135;-71
2024/01/16 01:44:47;;;;;;;14.30;12.93;;;;;;;17.45;39.53;100583.78;5026172;28;20039;-71
2024/01/16 01:47:13;;;;;;;24.42;22.08;;;;;;;17.64;39.52;100625.50;5012347;28;20041;-71
2024/01/16 01:49:39;;;;;;;15.82;14.50;;;;;;;17.61;39.58;100623.22;5024769;28;20550;-71
2024/01/16 01:52:05;;;;;;;17.02;15.40;;;;;;;17.62;39.29;100624.03;5025374;28;20041;-71
2024/01/16 01:54:35;;;;;;;31.90;29.05;;;;;;;17.62;39.69;100618.78;5025329;28;20041;-71
2024/01/16 01:57:01;;;;;;;19.75;18.10;;;;;;;17.63;39.64;100633.56;5029060;28;20052;-71
2024/01/16 01:59:28;;;;;;;36.28;33.50;;;;;;;17.55;39.71;100621.25;5030911;28;20078;-71
2024/01/16 02:01:55;;;;;;;29.27;26.45;;;;;;;17.52;39.59;100626.84;5036732;28;20064;-71
2024/01/16 02:04:21;;;;;;;48.75;43.97;;;;;;;17.51;39.61;100638.38;5031202;28;20036;-71
2024/01/16 02:06:47;;;;;;;54.05;48.88;;;;;;;17.58;39.48;100651.69;5037676;28;20033;-70
2024/01/16 02:09:13;;;;;;;16.35;14.98;;;;;;;17.64;39.41;100651.00;5037735;28;20048;-71
2024/01/16 02:11:39;;;;;;;45.35;40.88;;;;;;;17.75;39.34;100659.38;5012904;28;20026;-71
2024/01/16 02:14:05;;;;;;;20.08;18.75;;;;;;;17.93;38.95;100659.16;5031516;28;20053;-71
2024/01/16 02:16:37;;;;;;;68.45;61.65;;;;;;;18.01;38.95;100653.06;5027313;28;20362;-71
2024/01/16 02:19:02;;;;;;;45.78;42.20;;;;;;;17.92;38.79;100625.91;5032652;28;20040;-70
2024/01/16 02:21:34;;;;;;;61.97;56.38;;;;;;;17.92;38.88;100625.91;5030021;28;20462;-71
2024/01/16 02:24:00;;;;;;;50.53;45.60;;;;;;;17.90;39.05;100627.88;5016941;28;20039;-72
2024/01/16 02:26:25;;;;;;;71.57;64.47;;;;;;;17.94;39.01;100633.63;5013065;28;20053;-72
2024/01/16 02:28:52;;;;;;;52.80;48.38;;;;;;;17.94;39.10;100641.53;5037060;28;20037;-71
2024/01/16 02:31:18;;;;;;;32.70;30.50;;;;;;;17.86;39.29;100631.03;5031800;28;20045;-71
2024/01/16 02:33:44;;;;;;;58.00;53.03;;;;;;;17.58;39.24;100586.66;5022827;28;20061;-73
2024/01/16 02:36:09;;;;;;;61.22;55.25;;;;;;;17.77;39.50;100631.09;5026380;28;20068;-72
2024/01/16 02:38:35;;;;;;;60.85;55.00;;;;;;;17.72;39.40;100629.94;5029411;28;20369;-70
2024/01/16 02:41:00;;;;;;;58.03;52.58;;;;;;;17.68;39.32;100621.56;5030114;28;20042;-71
2024/01/16 02:43:26;;;;;;;73.50;65.97;;;;;;;17.61;39.53;100627.66;5032969;28;20049;-71
2024/01/16 02:45:53;;;;;;;85.63;76.28;;;;;;;17.64;39.57;100641.31;5008547;28;20049;-72
2024/01/16 02:48:18;;;;;;;98.70;83.10;;;;;;;17.52;39.56;100632.94;5029147;28;20056;-71
2024/01/16 02:50:44;;;;;;;118.32;90.78;;;;;;;17.64;39.52;100651.00;5036229;28;20021;-72
2024/01/16 02:53:09;;;;;;;136.43;97.68;;;;;;;17.65;39.59;100644.75;5037399;28;20098;-71
2024/01/16 02:55:35;;;;;;;161.77;106.38;;;;;;;17.64;39.66;100645.75;5038118;28;20041;-71
2024/01/16 02:58:03;;;;;;;159.68;105.28;;;;;;;17.62;39.54;100650.38;5014272;28;20033;-71
2024/01/16 03:00:28;;;;;;;143.80;99.72;;;;;;;17.52;39.54;100634.75;5026440;28;21189;-71
2024/01/16 03:02:54;;;;;;;153.38;103.35;;;;;;;17.56;39.34;100645.75;5024134;28;20033;-70
2024/01/16 03:05:19;;;;;;;137.10;96.47;;;;;;;17.53;39.66;100636.38;5032994;28;20040;-71
2024/01/16 03:07:45;;;;;;;149.10;101.80;;;;;;;17.56;39.78;100646.56;5026710;28;20087;-71
2024/01/16 03:10:11;;;;;;;141.32;98.70;;;;;;;17.54;39.66;100645.94;5032273;28;21197;-71
2024/01/16 03:12:37;;;;;;;137.68;97.93;;;;;;;17.59;39.48;100648.03;5039178;28;20584;-70
2024/01/16 03:15:02;;;;;;;128.77;95.07;;;;;;;17.56;39.42;100645.75;5026927;28;20096;-71
2024/01/16 03:17:28;;;;;;;141.27;100.82;;;;;;;17.55;39.51;100644.94;5031289;28;20044;-71
2024/01/16 03:19:54;;;;;;;169.20;110.63;;;;;;;17.52;39.72;100645.28;5029917;28;20102;-70
2024/01/16 03:22:19;;;;;;;188.25;117.22;;;;;;;17.50;39.63;100650.72;5030755;28;20045;-70
2024/01/16 03:24:45;;;;;;;174.75;112.60;;;;;;;17.49;39.63;100646.44;5035537;28;20048;-71
2024/01/16 03:27:11;;;;;;;168.05;110.10;;;;;;;17.47;39.63;100643.16;5006633;28;20065;-70
2024/01/16 03:29:38;;;;;;;159.00;106.13;;;;;;;17.50;39.42;100644.63;5033218;28;20053;-71
2024/01/16 03:32:04;;;;;;;144.38;100.47;;;;;;;17.47;39.49;100631.81;5019615;28;20064;-71
2024/01/16 03:34:31;;;;;;;157.77;107.07;;;;;;;17.55;39.59;100637.03;5033372;28;20041;-71
2024/01/16 03:36:57;;;;;;;185.02;115.80;;;;;;;17.52;39.59;100629.47;5036575;28;20139;-72
2024/01/16 03:39:22;;;;;;;155.63;105.75;;;;;;;17.52;39.45;100629.47;4999326;28;20414;-71
2024/01/16 03:41:48;;;;;;;176.55;112.80;;;;;;;17.52;39.50;100632.13;5018631;28;20678;-70
2024/01/16 03:44:14;;;;;;;176.27;112.78;;;;;;;17.56;39.51;100629.97;5035172;28;20328;-69
2024/01/16 03:46:39;;;;;;;208.27;123.25;;;;;;;17.43;39.58;100618.16;5028874;28;20053;-70
2024/01/16 03:49:05;;;;;;;186.02;114.60;;;;;;;17.49;39.74;100630.66;4987316;28;20046;-70
2024/01/16 03:51:30;;;;;;;176.35;110.90;;;;;;;17.48;39.54;100626.38;5012525;28;20033;-70
2024/01/16 03:53:56;;;;;;;184.10;114.57;;;;;;;17.54;39.55;100635.41;5031634;28;20056;-71
2024/01/16 03:56:22;;;;;;;177.57;112.18;;;;;;;17.55;39.58;100628.31;5029088;28;20048;-70
2024/01/16 03:58:48;;;;;;;175.32;111.43;;;;;;;17.51;39.65;100636.56;5029792;28;20229;-71
2024/01/16 04:01:14;;;;;;;179.77;113.30;;;;;;;17.42;39.70;100627.06;5012896;28;20484;-71
2024/01/16 04:03:40;;;;;;;198.02;120.25;;;;;;;17.45;39.79;100639.88;5032153;28;20037;-71
2024/01/16 04:06:18;;;;;;;200.57;121.25;;;;;;;17.32;39.71;100626.41;5009988;28;20037;-71
2024/01/16 04:08:45;;;;;;;212.13;124.95;;;;;;;17.43;39.70;100631.34;5012647;28;20606;-70
2024/01/16 04:11:14;;;;;;;256.88;142.23;;;;;;;17.45;39.66;100618.81;5024679;28;20047;-71
2024/01/16 04:13:41;;;;;;;328.10;169.07;;;;;;;17.65;39.32;100624.50;5019790;28;20131;-70
2024/01/16 04:16:06;;;;;;;310.75;163.05;;;;;;;17.73;39.24;100628.94;5027910;28;20045;-72
2024/01/16 04:18:40;;;;;;;252.70;140.98;;;;;;;17.58;39.08;100601.66;5032517;28;20045;-71
2024/01/16 04:21:06;;;;;;;233.90;134.10;;;;;;;17.64;39.28;100617.59;5034908;28;20064;-71
2024/01/16 04:23:32;;;;;;;263.38;144.43;;;;;;;17.68;39.35;100621.56;5036593;28;20567;-68
2024/01/16 04:25:58;;;;;;;254.98;141.93;;;;;;;17.63;39.39;100625.69;5022490;28;20667;-70
2024/01/16 04:28:24;;;;;;;279.13;150.00;;;;;;;17.58;39.34;100617.44;5025775;28;20498;-70
2024/01/16 04:30:50;;;;;;;253.15;140.77;;;;;;;17.58;39.48;100614.81;5032681;28;20454;-70
2024/01/16 04:33:15;;;;;;;260.52;143.48;;;;;;;17.30;39.51;100581.03;5029798;28;20043;-70
2024/01/16 04:35:41;;;;;;;204.88;123.28;;;;;;;17.47;39.45;100605.47;5025356;28;20033;-71
2024/01/16 04:38:07;;;;;;;211.07;124.97;;;;;;;17.48;39.63;100613.22;5014479;28;20496;-71
2024/01/16 04:40:33;;;;;;;206.93;123.57;;;;;;;17.46;39.71;100619.63;5029931;28;20807;-71
2024/01/16 04:42:59;;;;;;;174.95;112.55;;;;;;;17.46;39.68;100625.72;5031770;28;20049;-70
2024/01/16 04:45:24;;;;;;;195.77;119.65;;;;;;;17.44;39.71;100621.63;5031124;28;20044;-70
2024/01/16 04:47:50;;;;;;;157.25;105.30;;;;;;;17.45;39.77;100626.72;5014573;28;20044;-71
2024/01/16 04:50:16;;;;;;;206.35;122.30;;;;;;;17.51;39.53;100620.75;5008170;28;20108;-71
2024/01/16 04:52:41;;;;;;;213.60;124.60;;;;;;;17.63;39.10;100615.97;5027364;28;20067;-70
2024/01/16 04:55:07;;;;;;;184.23;113.75;;;;;;;17.75;39.13;100619.06;5034416;28;20041;-71
2024/01/16 04:57:33;;;;;;;196.65;118.93;;;;;;;17.72;39.05;100611.50;5031405;28;20373;-71
2024/01/16 04:59:59;;;;;;;233.20;132.95;;;;;;;17.71;39.08;100615.94;5037576;28;20037;-71
2024/01/16 05:02:24;;;;;;;220.55;128.27;;;;;;;17.70;39.02;100619.56;5026962;28;20468;-71
2024/01/16 05:04:51;;;;;;;231.13;133.00;;;;;;;17.57;39.23;100595.56;5030056;28;20110;-71
2024/01/16 05:07:22;;;;;;;222.77;128.95;;;;;;;17.64;39.29;100606.25;5013521;28;20060;-70
2024/01/16 05:09:48;;;;;;;216.73;126.57;;;;;;;17.52;39.41;100606.59;5030298;28;20041;-71
2024/01/16 05:12:14;;;;;;;243.35;136.75;;;;;;;17.50;39.36;100594.63;5009684;28;20038;-71
2024/01/16 05:14:39;;;;;;;170.93;110.72;;;;;;;17.55;39.46;100610.72;5016280;28;20036;-71
2024/01/16 05:17:05;;;;;;;183.02;116.65;;;;;;;17.56;39.57;100612.34;5026028;28;20283;-70
2024/01/16 05:19:30;;;;;;;179.38;115.38;;;;;;;17.53;39.50;100613.50;5029806;28;20486;-70
2024/01/16 05:21:56;;;;;;;177.43;113.95;;;;;;;17.64;39.44;100609.72;5032921;28;20059;-70
2024/01/16 05:24:22;;;;;;;152.20;105.65;;;;;;;17.79;39.14;100609.84;5033279;28;20541;-72
2024/01/16 05:26:47;;;;;;;141.65;99.18;;;;;;;18.00;38.79;100614.53;5031699;28;20049;-71
2024/01/16 05:29:13;;;;;;;210.63;125.65;;;;;;;18.07;38.62;100612.81;5013660;28;20060;-71
2024/01/16 05:31:41;;;;;;;193.20;119.43;;;;;;;18.10;38.65;100620.38;5016920;28;20025;-71
2024/01/16 05:34:08;;;;;;;222.30;129.77;;;;;;;18.11;38.67;100614.13;5033258;28;20049;-71
2024/01/16 05:36:33;;;;;;;241.73;136.73;;;;;;;18.16;38.74;100621.53;5034582;28;20045;-71
2024/01/16 05:38:59;;;;;;;268.90;147.10;;;;;;;18.11;38.81;100606.22;5015678;28;20064;-70
2024/01/16 05:41:26;;;;;;;285.85;153.65;;;;;;;18.18;38.65;100611.63;5033907;28;20481;-71
2024/01/16 05:43:52;;;;;;;278.92;150.25;;;;;;;18.18;38.58;100611.63;5025719;28;20381;-71
2024/01/16 05:46:18;;;;;;;301.33;159.43;;;;;;;18.11;38.69;100614.94;5024957;28;20052;-71
2024/01/16 05:48:44;;;;;;;294.60;156.20;;;;;;;18.14;38.80;100613.78;5013873;28;20037;-71
2024/01/16 05:51:10;;;;;;;303.17;159.48;;;;;;;18.06;38.92;100598.81;5030155;28;20127;-69
2024/01/16 05:53:35;;;;;;;322.60;167.00;;;;;;;18.06;39.03;100609.38;5037639;28;20059;-71
2024/01/16 05:56:01;;;;;;;328.13;169.65;;;;;;;18.03;39.03;100614.16;5028385;28;20033;-71
2024/01/16 05:58:26;;;;;;;392.08;196.43;;;;;;;17.92;38.88;100607.47;5037233;28;20041;-72
2024/01/16 06:00:52;;;;;;;334.30;173.02;;;;;;;17.92;39.12;100598.75;5028132;28;20041;-71
2024/01/16 06:03:17;;;;;;;347.23;178.70;;;;;;;17.91;39.25;100610.28;5030894;28;20049;-71
2024/01/16 06:05:43;;;;;;;340.30;175.27;;;;;;;17.93;39.10;100611.72;5031695;28;20053;-71
2024/01/16 06:08:09;;;;;;;336.77;174.73;;;;;;;17.81;39.15;100597.31;5034225;28;20068;-70
2024/01/16 06:10:34;;;;;;;339.10;173.70;;;;;;;17.72;39.23;100586.00;5009822;28;20615;-71
2024/01/16 06:13:00;;;;;;;391.42;197.90;;;;;;;17.80;39.18;100600.94;5027337;28;20036;-71
2024/01/16 06:15:25;;;;;;;379.00;191.52;;;;;;;17.80;39.17;100593.06;5021754;28;20037;-71
2024/01/16 06:17:51;;;;;;;379.15;191.07;;;;;;;17.78;39.08;100598.50;5021464;28;20052;-71
2024/01/16 06:20:16;;;;;;;311.10;162.20;;;;;;;17.79;39.28;100597.50;5029471;28;20473;-71
2024/01/16 06:22:42;;;;;;;324.75;168.18;;;;;;;17.77;39.17;100598.63;5017337;28;20049;-71
2024/01/16 06:25:08;;;;;;;343.00;176.57;;;;;;;17.66;39.30;100583.19;5022671;28;20050;-71
2024/01/16 06:27:33;;;;;;;345.48;178.23;;;;;;;17.65;39.35;100584.19;5028196;28;20053;-71
2024/01/16 06:29:59;;;;;;;385.95;194.85;;;;;;;17.65;39.26;100608.72;5030576;28;20100;-71
2024/01/16 06:32:24;;;;;;;370.02;188.27;;;;;;;17.63;39.53;100608.06;5029515;28;20048;-71
2024/01/16 06:34:50;;;;;;;441.13;217.73;;;;;;;17.63;39.38;100605.44;5031578;28;20520;-71
2024/01/16 06:37:15;;;;;;;480.88;233.35;;;;;;;17.62;39.45;100610.88;5011467;28;20049;-71
2024/01/16 06:39:41;;;;;;;499.17;244.15;;;;;;;17.50;39.52;100594.63;5029542;28;20040;-71
2024/01/16 06:42:06;;;;;;;508.40;249.07;;;;;;;17.57;39.57;100613.16;5033137;28;20048;-71
2024/01/16 06:44:32;;;;;;;481.67;235.50;;;;;;;17.53;39.57;100610.88;5032736;28;20054;-71
2024/01/16 06:46:58;;;;;;;548.00;268.27;;;;;;;17.53;39.31;100610.88;5037598;28;20049;-71
2024/01/16 06:49:23;;;;;;;491.10;242.05;;;;;;;17.51;39.48;100599.69;5028777;28;20054;-71
2024/01/16 06:51:49;;;;;;;483.98;238.77;;;;;;;17.59;39.46;100616.44;5032892;28;20116;-71
2024/01/16 06:54:14;;;;;;;502.52;250.45;;;;;;;17.59;39.21;100608.56;5032566;28;20057;-71
2024/01/16 06:56:40;;;;;;;483.05;236.77;;;;;;;17.59;39.28;100603.28;5029229;28;20048;-71
2024/01/16 06:59:05;;;;;;;503.90;249.15;;;;;;;17.66;39.24;100615.63;5036920;28;20045;-71
2024/01/16 07:01:31;;;;;;;532.45;265.45;;;;;;;17.65;39.06;100607.91;5028650;28;20100;-71
2024/01/16 07:03:57;;;;;;;522.95;265.92;;;;;;;17.60;39.28;100603.16;5045553;28;20095;-71
2024/01/16 07:06:22;;;;;;;538.35;278.02;;;;;;;17.71;39.28;100618.59;5034269;28;20041;-72
2024/01/16 07:08:48;;;;;;;544.03;281.35;;;;;;;17.65;39.34;100613.16;5031243;28;20038;-71
2024/01/16 07:11:13;;;;;;;614.13;312.50;;;;;;;17.75;39.12;100621.69;5017748;28;20037;-71
2024/01/16 07:13:40;;;;;;;655.22;331.20;;;;;;;17.87;38.85;100609.78;5034922;28;20099;-71
2024/01/16 07:16:09;;;;;;;643.08;325.75;;;;;;;17.98;38.70;100612.06;5037020;28;20091;-71
2024/01/16 07:18:35;;;;;;;717.60;364.35;;;;;;;18.06;38.79;100622.53;5027882;28;20033;-70
2024/01/16 07:21:01;;;;;;;575.78;292.52;;;;;;;17.94;38.89;100615.19;5023223;28;20034;-71
2024/01/16 07:23:26;;;;;;;587.97;302.25;;;;;;;17.76;39.44;100618.06;5021359;28;20052;-71
2024/01/16 07:25:52;;;;;;;565.22;287.85;;;;;;;17.80;39.56;100627.28;5032370;28;20033;-71
2024/01/16 07:28:18;;;;;;;48.90;44.83;;;;;;;17.89;39.30;100630.69;5034469;28;20060;-70
2024/01/16 07:30:44;;;;;;;40.00;36.75;;;;;;;18.05;39.15;100626.19;5032379;28;20136;-71
2024/01/16 07:33:09;;;;;;;137.02;96.30;;;;;;;18.15;38.99;100620.69;5040296;28;20159;-71
2024/01/16 07:35:35;;;;;;;382.73;187.40;;;;;;;18.19;38.54;100608.81;5028483;28;20091;-71
2024/01/16 07:38:01;;;;;;;386.08;189.85;;;;;;;18.31;38.57;100620.59;5036836;28;20071;-71
2024/01/16 07:40:26;;;;;;;20.95;19.30;;;;;;;18.36;38.43;100625.34;5035339;28;20053;-72
2024/01/16 07:42:52;;;;;;;413.83;207.32;;;;;;;18.35;38.71;100621.06;5032646;28;20045;-71
2024/01/16 07:45:17;;;;;;;106.22;84.53;;;;;;;18.28;38.72;100613.03;5027729;28;20377;-71
2024/01/16 07:47:43;;;;;;;424.92;211.40;;;;;;;18.30;38.59;100626.84;5029439;28;20085;-71
2024/01/16 07:50:08;;;;;;;90.72;76.70;;;;;;;18.36;38.63;100618.25;5025176;28;20461;-71
2024/01/16 07:52:34;;;;;;;210.73;117.20;;;;;;;18.31;38.83;100627.66;5022663;28;20034;-72
2024/01/16 07:54:59;;;;;;;471.98;222.68;;;;;;;18.15;39.06;100633.06;5034612;28;20374;-72
2024/01/16 07:57:25;;;;;;;537.50;258.98;;;;;;;18.22;39.09;100623.44;5029996;28;20029;-71
2024/01/16 07:59:50;;;;;;;569.38;280.08;;;;;;;18.40;38.78;100635.38;5038078;28;20045;-71
2024/01/16 08:02:17;;;;;;;575.25;282.25;;;;;;;18.36;39.07;100625.34;5013192;28;20386;-71
2024/01/16 08:04:42;;;;;;;652.00;327.95;;;;;;;18.38;39.23;100628.63;5031026;28;20042;-71
2024/01/16 08:07:08;;;;;;;661.05;330.42;;;;;;;18.33;39.19;100638.88;5026882;28;20109;-72
2024/01/16 08:09:35;;;;;;;631.03;318.73;;;;;;;18.31;39.34;100630.31;5020524;28;20053;-71
2024/01/16 08:12:02;;;;;;;651.65;332.10;;;;;;;18.39;38.92;100625.00;5035924;28;20072;-71
2024/01/16 08:14:28;;;;;;;648.30;330.17;;;;;;;18.65;38.66;100645.75;5025050;28;20076;-71
2024/01/16 08:16:54;;;;;;;680.20;348.88;;;;;;;18.73;38.40;100645.72;5019514;28;20094;-72
2024/01/16 08:19:19;;;;;;;683.17;354.35;;;;;;;18.82;38.19;100649.91;5035425;28;20369;-71
2024/01/16 08:21:45;;;;;;;650.47;340.00;;;;;;;18.80;38.05;100645.81;5009694;28;20045;-72
2024/01/16 08:24:11;;;;;;;665.63;349.60;;;;;;;18.81;38.16;100650.09;5025166;28;20034;-71
2024/01/16 08:26:36;;;;;;;651.85;340.00;;;;;;;18.82;38.11;100655.19;5015032;28;20383;-72
2024/01/16 08:29:02;;;;;;;648.45;339.83;;;;;;;18.79;38.04;100658.19;5030686;28;20033;-72
2024/01/16 08:31:27;;;;;;;713.80;370.23;;;;;;;18.78;38.25;100663.66;5031989;28;20044;-71
2024/01/16 08:33:55;;;;;;;723.35;381.20;;;;;;;18.73;38.07;100663.38;5025165;28;20045;-71
2024/01/16 08:36:21;;;;;;;748.60;393.85;;;;;;;18.71;38.29;100663.53;5023935;28;20045;-72
2024/01/16 08:38:47;;;;;;;680.67;352.65;;;;;;;18.66;38.32;100663.22;5023515;28;20038;-70
2024/01/16 08:41:13;;;;;;;657.30;341.27;;;;;;;18.67;38.34;100659.59;5027354;28;20103;-72
2024/01/16 08:43:38;;;;;;;644.08;331.67;;;;;;;18.65;38.36;100661.59;5034954;28;20025;-72
2024/01/16 08:46:04;;;;;;;636.70;327.23;;;;;;;18.62;38.32;100657.47;5025496;28;20049;-72
2024/01/16 08:48:29;;;;;;;634.80;323.80;;;;;;;18.54;38.43;100649.63;5028012;28;20045;-72
2024/01/16 08:50:55;;;;;;;656.85;331.17;;;;;;;18.56;38.43;100660.81;5010938;28;20025;-76
2024/01/16 08:53:23;;;;;;;643.55;318.48;;;;;;;18.47;38.44;100655.75;5010519;28;20052;-75
2024/01/16 08:55:49;;;;;;;650.67;322.20;;;;;;;18.53;38.48;100662.97;5016379;28;20507;-76
2024/01/16 08:58:14;;;;;;;676.00;334.02;;;;;;;18.47;38.36;100646.03;5025992;28;20037;-75
2024/01/16 09:00:40;;;;;;;681.60;341.17;;;;;;;18.55;38.19;100650.44;5017933;28;20049;-75
2024/01/16 09:03:07;;;;;;;668.45;329.98;;;;;;;18.65;38.19;100662.41;5025461;28;20038;-76
2024/01/16 09:05:36;;;;;;;638.35;318.45;;;;;;;18.64;38.22;100652.84;5026299;28;20480;-76
2024/01/16 09:08:02;;;;;;;637.78;318.42;;;;;;;18.69;38.39;100658.44;5019647;28;20076;-75
2024/01/16 09:10:29;;;;;;;599.75;301.60;;;;;;;18.64;38.17;100660.78;5008429;28;20091;-75
2024/01/16 09:12:54;;;;;;;623.40;315.45;;;;;;;18.67;38.18;100665.72;5009617;28;20037;-76
2024/01/16 09:15:20;;;;;;;638.75;325.55;;;;;;;18.69;38.10;100670.81;5006972;28;20087;-75
2024/01/16 09:17:46;;;;;;;603.50;310.17;;;;;;;18.61;38.08;100663.72;5022024;28;20099;-75
2024/01/16 09:20:12;;;;;;;612.20;311.95;;;;;;;18.65;38.29;100675.59;5028288;28;20086;-75
2024/01/16 09:22:37;;;;;;;636.28;326.48;;;;;;;18.57;38.22;100664.25;5024344;28;20060;-75
2024/01/16 09:25:03;;;;;;;654.63;336.55;;;;;;;18.62;38.24;100669.81;5026750;28;20308;-76
2024/01/16 09:27:29;;;;;;;632.63;322.05;;;;;;;18.60;38.43;100672.63;5022743;28;20130;-75
2024/01/16 09:29:54;;;;;;;638.08;326.05;;;;;;;18.57;38.37;100672.19;5014456;28;20037;-75
2024/01/16 09:32:20;;;;;;;657.30;336.00;;;;;;;18.55;38.56;100671.53;5022703;28;20457;-76
2024/01/16 09:34:45;;;;;;;672.47;344.98;;;;;;;18.45;38.47;100655.09;5035233;28;20488;-75
2024/01/16 09:37:14;;;;;;;676.88;346.50;;;;;;;18.62;38.30;100675.91;5010313;28;20052;-75
2024/01/16 09:39:41;;;;;;;693.40;353.00;;;;;;;18.65;38.10;100666.88;5022323;28;20128;-75
2024/01/16 09:42:06;;;;;;;679.63;341.55;;;;;;;18.69;38.16;100674.28;5024532;28;20569;-75
2024/01/16 09:44:34;;;;;;;696.30;349.30;;;;;;;18.62;38.48;100667.19;5016139;28;20493;-74
2024/01/16 09:47:01;;;;;;;701.88;352.13;;;;;;;18.49;38.54;100651.97;5011242;28;20037;-75
2024/01/16 09:49:29;;;;;;;710.90;357.27;;;;;;;18.58;38.55;100655.34;5023895;28;20037;-75
2024/01/16 09:51:54;;;;;;;689.65;347.15;;;;;;;18.60;38.47;100662.09;5014399;28;20799;-75
2024/01/16 09:54:20;;;;;;;701.17;353.98;;;;;;;18.63;38.47;100661.75;5006813;28;20079;-75
2024/01/16 09:56:50;;;;;;;704.35;355.30;;;;;;;18.57;38.26;100654.53;5032859;28;20042;-75
2024/01/16 09:59:18;;;;;;;715.75;360.30;;;;;;;18.59;38.19;100664.91;5009995;28;20431;-75
2024/01/16 10:01:45;;;;;;;684.35;342.38;;;;;;;18.63;38.24;100677.59;5027771;28;20053;-75
2024/01/16 10:04:10;;;;;;;713.70;359.60;;;;;;;18.66;38.32;100679.06;5025150;28;20060;-75
2024/01/16 10:06:38;;;;;;;710.35;358.98;;;;;;;18.57;38.53;100662.44;5025140;28;20030;-74
2024/01/16 10:09:04;;;;;;;702.47;356.00;;;;;;;18.66;38.32;100679.88;5020818;28;20643;-75
2024/01/16 10:11:30;;;;;;;730.60;367.17;;;;;;;18.58;38.48;100669.34;5023806;28;20041;-75
2024/01/16 10:13:58;;;;;;;728.45;370.67;;;;;;;18.52;38.38;100662.16;5006338;28;20033;-75
2024/01/16 10:16:57;;;;;;;723.22;372.50;;;;;;;18.58;38.49;100668.53;5023278;28;20042;-75
2024/01/16 10:19:23;;;;;;;744.33;385.53;;;;;;;18.45;38.24;100650.66;5026783;28;20037;-75
2024/01/16 10:21:49;;;;;;;759.90;394.45;;;;;;;18.60;38.36;100667.38;5010281;28;20038;-74
2024/01/16 10:24:14;;;;;;;770.85;402.00;;;;;;;18.58;38.31;100669.34;5028899;28;20076;-75
2024/01/16 10:26:40;;;;;;;751.25;387.13;;;;;;;18.58;38.25;100658.00;5036891;28;20184;-74
2024/01/16 10:29:05;;;;;;;759.67;391.67;;;;;;;18.53;38.37;100658.53;5019087;28;20381;-75
2024/01/16 10:31:31;;;;;;;756.03;388.75;;;;;;;18.41;38.41;100650.19;5034396;28;20789;-75
2024/01/16 10:33:57;;;;;;;1205.13;610.03;;;;;;;18.60;37.60;100661.28;5025217;28;20053;-71
2024/01/16 10:36:25;;;;;;;1148.07;588.50;;;;;;;18.54;38.04;100654.06;5027192;28;20045;-75
2024/01/16 10:38:57;;;;;;;1155.28;585.80;;;;;;;18.64;37.98;100660.78;5024113;28;20743;-70
2024/01/16 10:41:26;;;;;;;1168.05;582.25;;;;;;;18.65;37.99;100659.78;5029255;28;20025;-69
2024/01/16 10:44:07;;;;;;;1185.45;586.22;;;;;;;18.67;38.04;100660.44;5027269;28;20048;-69
2024/01/16 10:46:32;;;;;;;1200.40;594.05;;;;;;;18.68;37.98;100653.34;5026704;28;20541;-68
2024/01/16 10:49:04;;;;;;;1201.05;596.58;;;;;;;18.65;38.10;100649.22;5028923;28;20037;-69
2024/01/16 10:51:31;;;;;;;1195.53;592.72;;;;;;;18.62;38.07;100656.63;5025304;28;20036;-70
2024/01/16 10:54:08;;;;;;;1197.72;591.33;;;;;;;18.62;38.17;100649.53;5010996;28;20047;-70